createdAt,value
2019-02-27T00:03:28.891Z,47.90
2019-02-27T00:08:32.361Z,49.25
2019-02-27T00:13:37.998Z,51.08
2019-02-27T00:18:43.469Z,45.95
2019-02-27T00:23:48.949Z,46.10
2019-02-27T00:28:56.146Z,45.27
2019-02-27T00:34:01.563Z,44.83
2019-02-27T00:39:08.507Z,44.07
2019-02-27T00:44:13.922Z,44.20
2019-02-27T00:49:19.448Z,41.70
2019-02-27T00:54:24.904Z,42.30
2019-02-27T00:59:32.877Z,43.85
2019-02-27T01:04:37.958Z,46.77
2019-02-27T01:09:43.420Z,44.97
2019-02-27T01:14:48.950Z,42.50
2019-02-27T01:19:54.423Z,40.10
2019-02-27T01:25:00.017Z,45.97
2019-02-27T01:30:06.810Z,58.27
2019-02-27T01:35:17.443Z,53.30
2019-02-27T01:40:20.265Z,52.10
2019-02-27T01:45:25.787Z,51.75
2019-02-27T01:50:36.064Z,50.97
2019-02-27T01:55:41.647Z,49.13
2019-02-27T02:00:47.133Z,49.27
2019-02-27T02:05:52.552Z,55.30
2019-02-27T02:10:58.872Z,56.13
2019-02-27T02:16:17.081Z,57.47
2019-02-27T02:21:42.712Z,58.17
2019-02-27T02:27:02.893Z,69.70
2019-02-27T02:32:23.643Z,63.83
2019-02-27T02:37:46.310Z,70.53
2019-02-27T02:43:06.961Z,74.97
2019-02-27T02:48:27.872Z,79.37
2019-02-27T02:53:48.921Z,88.97
2019-02-27T02:59:24.796Z,117.40
2019-02-27T03:04:48.204Z,118.90
2019-02-27T03:10:08.172Z,119.67
2019-02-27T03:15:34.364Z,112.77
2019-02-27T03:20:53.354Z,101.07
2019-02-27T03:26:16.920Z,93.10
2019-02-27T03:31:33.240Z,89.97
2019-02-27T03:42:07.353Z,91.00
2019-02-27T03:47:30.303Z,87.60
2019-02-27T03:52:57.533Z,92.33
2019-02-27T03:58:14.877Z,93.63
2019-02-27T04:03:36.208Z,96.73
2019-02-27T04:08:56.738Z,108.72
2019-02-27T04:14:05.058Z,109.80
2019-02-27T04:19:09.359Z,130.73
2019-02-27T04:24:14.804Z,130.00
2019-02-27T04:29:20.204Z,131.10
2019-02-27T04:34:25.666Z,127.13
2019-02-27T04:39:31.122Z,128.00
2019-02-27T04:44:39.049Z,118.30
2019-02-27T04:49:43.742Z,127.78
2019-02-27T04:54:49.252Z,138.07
2019-02-27T04:59:54.667Z,133.97
2019-02-27T05:05:00.038Z,143.67
2019-02-27T05:10:07.259Z,135.80
2019-02-27T05:15:12.825Z,139.40
2019-02-27T05:20:18.229Z,164.70
2019-02-27T05:25:23.657Z,150.17
2019-02-27T05:30:29.107Z,139.57
2019-02-27T05:35:34.512Z,136.35
2019-02-27T05:40:39.867Z,128.83
2019-02-27T05:45:45.293Z,117.65
2019-02-27T05:50:50.751Z,108.80
2019-02-27T05:55:56.221Z,109.10
2019-02-27T06:01:02.046Z,115.80
2019-02-27T06:06:11.543Z,110.43
2019-02-27T06:11:15.917Z,91.70
2019-02-27T06:16:21.404Z,104.83
2019-02-27T06:21:26.770Z,121.60
2019-02-27T06:26:32.933Z,128.37
2019-02-27T06:31:39.496Z,136.28
2019-02-27T06:36:45.157Z,133.40
2019-02-27T06:41:50.547Z,122.90
2019-02-27T06:46:56.011Z,125.97
2019-02-27T06:52:01.417Z,129.27
2019-02-27T06:57:07.819Z,122.10
2019-02-27T07:02:13.882Z,121.10
2019-02-27T07:07:19.314Z,102.10
2019-02-27T07:12:24.897Z,101.47
2019-02-27T07:17:31.728Z,94.70
2019-02-27T07:22:37.646Z,94.80
2019-02-27T07:27:44.401Z,90.30
2019-02-27T07:32:49.787Z,92.37
2019-02-27T07:37:55.314Z,95.93
2019-02-27T07:43:03.265Z,92.63
2019-02-27T07:48:09.681Z,94.03
2019-02-27T07:53:17.429Z,97.70
2019-02-27T07:58:22.309Z,96.87
2019-02-27T08:03:27.839Z,88.23
2019-02-27T08:08:33.594Z,95.13
2019-02-27T08:13:38.998Z,102.38
2019-02-27T08:18:44.457Z,108.23
2019-02-27T08:23:49.792Z,109.37
2019-02-27T08:28:55.366Z,110.63
2019-02-27T08:34:00.837Z,112.90
2019-02-27T08:39:07.754Z,114.50
2019-02-27T08:44:13.323Z,104.10
2019-02-27T08:49:18.870Z,110.53
2019-02-27T08:54:25.967Z,95.07
2019-02-27T08:59:32.274Z,93.67
2019-02-27T09:04:37.766Z,96.43
2019-02-27T09:09:43.177Z,95.03
2019-02-27T09:14:48.643Z,89.50
2019-02-27T09:19:54.121Z,82.97
2019-02-27T09:24:59.682Z,80.10
2019-02-27T09:30:05.919Z,79.73
2019-02-27T09:35:11.951Z,95.37
2019-02-27T09:40:18.753Z,68.00
2019-02-27T09:45:27.720Z,77.80
2019-02-27T09:50:35.273Z,71.70
2019-02-27T09:55:41.114Z,74.12
2019-02-27T10:00:51.992Z,73.53
2019-02-27T10:05:57.475Z,68.63
2019-02-27T10:11:03.093Z,69.10
2019-02-27T10:16:08.919Z,54.53
2019-02-27T10:21:14.450Z,49.47
2019-02-27T10:26:22.089Z,36.03
2019-02-27T10:31:27.059Z,35.37
2019-02-27T10:36:32.710Z,26.37
2019-02-27T10:41:38.120Z,16.50
2019-02-27T10:46:43.585Z,19.90
2019-02-27T10:51:48.975Z,18.32
2019-02-27T10:56:56.356Z,13.43
2019-02-27T11:02:01.605Z,14.90
2019-02-27T11:07:07.136Z,15.20
2019-02-27T11:12:13.772Z,15.93
2019-02-27T11:17:19.329Z,20.17
2019-02-27T11:22:24.740Z,20.23
2019-02-27T11:27:30.250Z,27.07
2019-02-27T11:32:35.699Z,31.23
2019-02-27T11:37:41.255Z,20.00
2019-02-27T11:42:46.595Z,29.75
2019-02-27T11:47:52.299Z,21.87
2019-02-27T11:53:01.768Z,22.43
2019-02-27T11:58:05.609Z,21.93
2019-02-27T12:03:11.947Z,23.67
2019-02-27T12:08:17.515Z,23.83
2019-02-27T12:13:23.125Z,31.13
2019-02-27T12:18:28.614Z,24.80
2019-02-27T12:23:34.090Z,27.40
2019-02-27T12:28:39.440Z,23.93
2019-02-27T12:33:47.330Z,22.33
2019-02-27T12:38:52.862Z,25.23
2019-02-27T12:44:01.505Z,27.63
2019-02-27T12:49:07.125Z,24.10
2019-02-27T12:54:12.660Z,24.57
2019-02-27T12:59:18.052Z,24.20
2019-02-27T13:04:23.469Z,23.33
2019-02-27T13:09:28.933Z,25.27
2019-02-27T13:14:34.359Z,24.53
2019-02-27T13:19:39.865Z,25.30
2019-02-27T13:24:47.091Z,25.40
2019-02-27T13:29:56.829Z,29.17
2019-02-27T13:34:59.633Z,29.37
2019-02-27T13:40:07.734Z,29.57
2019-02-27T13:45:15.818Z,27.10
2019-02-27T13:50:23.444Z,24.37
2019-02-27T13:55:28.957Z,25.40
2019-02-27T14:00:34.739Z,24.83
2019-02-27T14:05:40.211Z,24.52
2019-02-27T14:10:47.109Z,28.90
2019-02-27T14:15:52.634Z,25.80
2019-02-27T14:20:59.017Z,26.43
2019-02-27T14:26:06.335Z,26.30
2019-02-27T14:31:13.218Z,27.77
2019-02-27T14:36:18.925Z,26.63
2019-02-27T14:41:24.515Z,24.50
2019-02-27T14:46:30.636Z,25.00
2019-02-27T14:51:36.345Z,26.37
2019-02-27T14:56:42.707Z,23.13
2019-02-27T15:01:49.757Z,25.05
2019-02-27T15:06:55.199Z,23.73
2019-02-27T15:12:00.719Z,25.50
2019-02-27T15:17:06.321Z,23.57
2019-02-27T15:22:13.417Z,23.53
2019-02-27T15:27:22.388Z,22.20
2019-02-27T15:32:29.452Z,22.77
2019-02-27T15:37:37.441Z,21.20
2019-02-27T15:42:43.499Z,23.47
2019-02-27T15:47:48.937Z,21.95
2019-02-27T15:52:54.574Z,20.27
2019-02-27T15:58:00.356Z,20.10
2019-02-27T16:03:10.697Z,20.10
2019-02-27T16:08:15.285Z,19.83
2019-02-27T16:13:20.417Z,20.00
2019-02-27T16:18:29.156Z,22.30
2019-02-27T16:23:37.449Z,21.57
2019-02-27T16:28:42.216Z,22.62
2019-02-27T16:33:47.734Z,22.17
2019-02-27T16:38:53.264Z,23.00
2019-02-27T16:43:58.842Z,24.53
2019-02-27T16:49:09.835Z,23.70
2019-02-27T16:54:11.964Z,23.50
2019-02-27T16:59:17.578Z,24.73
2019-02-27T17:04:23.210Z,24.07
2019-02-27T17:09:28.878Z,24.37
2019-02-27T17:14:34.437Z,23.70
2019-02-27T17:19:40.878Z,24.63
2019-02-27T17:24:46.718Z,24.37
2019-02-27T17:29:52.217Z,23.83
2019-02-27T17:34:59.305Z,24.20
2019-02-27T17:40:05.217Z,24.40
2019-02-27T17:45:14.731Z,25.87
2019-02-27T17:50:20.404Z,25.33
2019-02-27T17:55:25.898Z,26.40
2019-02-27T18:00:38.559Z,24.73
2019-02-27T18:05:43.981Z,28.05
2019-02-27T18:10:49.637Z,27.05
2019-02-27T18:15:55.289Z,25.07
2019-02-27T18:21:01.390Z,31.40
2019-02-27T18:26:07.018Z,33.53
2019-02-27T18:31:12.578Z,30.47
2019-02-27T18:36:18.117Z,34.17
2019-02-27T18:41:23.737Z,34.95
2019-02-27T18:46:29.421Z,35.83
2019-02-27T18:51:34.957Z,42.13
2019-02-27T18:56:40.519Z,50.60
2019-02-27T19:01:48.559Z,47.70
2019-02-27T19:06:54.196Z,44.30
2019-02-27T19:11:59.797Z,48.87
2019-02-27T19:17:05.765Z,53.13
2019-02-27T19:22:11.480Z,49.43
2019-02-27T19:27:18.240Z,53.90
2019-02-27T19:32:24.797Z,50.97
2019-02-27T19:37:30.557Z,63.73
2019-02-27T19:42:36.158Z,67.60
2019-02-27T19:47:41.617Z,63.70
2019-02-27T19:52:47.548Z,68.63
2019-02-27T19:57:53.214Z,68.85
2019-02-27T20:03:01.117Z,66.83
2019-02-27T20:08:09.849Z,65.42
2019-02-27T20:13:13.817Z,63.60
2019-02-27T20:18:19.477Z,59.93
2019-02-27T20:23:25.901Z,56.90
2019-02-27T20:28:35.057Z,53.70
2019-02-27T20:33:41.011Z,50.73
2019-02-27T20:38:47.541Z,51.15
2019-02-27T20:43:53.997Z,49.40
2019-02-27T20:48:59.538Z,51.10
2019-02-27T20:54:04.993Z,50.73
2019-02-27T20:59:10.477Z,45.30
2019-02-27T21:04:16.197Z,39.33
2019-02-27T21:09:22.277Z,30.93
2019-02-27T21:14:27.957Z,22.50
2019-02-27T21:19:33.866Z,19.67
2019-02-27T21:24:41.374Z,17.40
2019-02-27T21:29:46.918Z,19.03
2019-02-27T21:34:54.955Z,18.47
2019-02-27T21:40:02.291Z,18.13
2019-02-27T21:45:08.918Z,16.53
2019-02-27T21:50:17.213Z,16.97
2019-02-27T21:55:23.010Z,16.17
2019-02-27T22:00:30.777Z,17.20
2019-02-27T22:05:42.802Z,16.23
2019-02-27T22:10:43.679Z,17.42
2019-02-27T22:15:49.129Z,19.90
2019-02-27T22:20:59.493Z,19.60
2019-02-27T22:26:06.057Z,24.13
2019-02-27T22:31:14.610Z,24.80
2019-02-27T22:36:20.237Z,25.27
2019-02-27T22:41:25.740Z,24.57
2019-02-27T22:46:31.351Z,25.63
2019-02-27T22:51:37.049Z,23.27
2019-02-27T22:56:42.573Z,25.30
2019-02-27T23:01:51.516Z,24.00
2019-02-27T23:06:56.971Z,21.83
2019-02-27T23:12:02.958Z,24.23
2019-02-27T23:17:08.697Z,25.43
2019-02-27T23:22:14.329Z,22.90
2019-02-27T23:27:19.918Z,19.97
2019-02-27T23:32:28.405Z,18.93
2019-02-27T23:37:33.617Z,21.70
2019-02-27T23:42:38.952Z,22.20
2019-02-27T23:47:44.541Z,22.25
2019-02-27T23:52:53.208Z,21.60
2019-02-27T23:57:57.825Z,18.57
